sensor_id;sensor_type;location;lat;lon;timestamp;P1;durP1;ratioP1;P2;durP2;ratioP2
48522;SDS011;34315;50.150;11.070;2023-11-21T00:01:06;3.15;;;1.20;;
48522;SDS011;34315;50.150;11.070;2023-11-21T00:06:10;3.03;;;1.60;;
48522;SDS011;34315;50.150;11.070;2023-11-21T00:11:12;4.38;;;1.98;;
48522;SDS011;34315;50.150;11.070;2023-11-21T00:16:13;5.47;;;1.80;;
48522;SDS011;34315;50.150;11.070;2023-11-21T00:21:14;4.60;;;1.95;;
48522;SDS011;34315;50.150;11.070;2023-11-21T00:26:15;3.35;;;1.60;;
48522;SDS011;34315;50.150;11.070;2023-11-21T00:31:22;4.15;;;1.85;;
48522;SDS011;34315;50.150;11.070;2023-11-21T00:36:23;4.13;;;1.80;;
48522;SDS011;34315;50.150;11.070;2023-11-21T00:41:24;4.97;;;1.73;;
48522;SDS011;34315;50.150;11.070;2023-11-21T00:46:28;3.35;;;1.73;;
48522;SDS011;34315;50.150;11.070;2023-11-21T00:51:30;6.85;;;2.45;;
48522;SDS011;34315;50.150;11.070;2023-11-21T00:56:31;4.20;;;1.83;;
48522;SDS011;34315;50.150;11.070;2023-11-21T01:01:32;3.55;;;1.40;;
48522;SDS011;34315;50.150;11.070;2023-11-21T01:06:33;4.22;;;1.80;;
48522;SDS011;34315;50.150;11.070;2023-11-21T01:11:34;4.22;;;1.77;;
48522;SDS011;34315;50.150;11.070;2023-11-21T01:16:38;5.65;;;2.50;;
48522;SDS011;34315;50.150;11.070;2023-11-21T01:21:39;4.63;;;1.88;;
48522;SDS011;34315;50.150;11.070;2023-11-21T01:26:40;2.67;;;1.70;;
48522;SDS011;34315;50.150;11.070;2023-11-21T01:31:41;4.10;;;1.73;;
48522;SDS011;34315;50.150;11.070;2023-11-21T01:36:42;2.13;;;1.45;;
48522;SDS011;34315;50.150;11.070;2023-11-21T01:41:43;2.17;;;1.23;;
48522;SDS011;34315;50.150;11.070;2023-11-21T01:46:47;4.22;;;1.25;;
48522;SDS011;34315;50.150;11.070;2023-11-21T01:51:49;1.75;;;1.27;;
48522;SDS011;34315;50.150;11.070;2023-11-21T01:56:50;2.47;;;1.30;;
48522;SDS011;34315;50.150;11.070;2023-11-21T02:01:51;1.23;;;1.05;;
48522;SDS011;34315;50.150;11.070;2023-11-21T02:06:53;2.92;;;1.02;;
48522;SDS011;34315;50.150;11.070;2023-11-21T02:11:56;1.88;;;1.20;;
48522;SDS011;34315;50.150;11.070;2023-11-21T02:16:58;3.67;;;1.52;;
48522;SDS011;34315;50.150;11.070;2023-11-21T02:21:59;2.97;;;1.50;;
48522;SDS011;34315;50.150;11.070;2023-11-21T02:27:04;3.05;;;1.45;;
48522;SDS011;34315;50.150;11.070;2023-11-21T02:32:07;2.90;;;1.50;;
48522;SDS011;34315;50.150;11.070;2023-11-21T02:37:08;2.67;;;1.50;;
48522;SDS011;34315;50.150;11.070;2023-11-21T02:42:09;2.15;;;1.40;;
48522;SDS011;34315;50.150;11.070;2023-11-21T02:47:10;3.53;;;1.42;;
48522;SDS011;34315;50.150;11.070;2023-11-21T02:52:11;3.90;;;1.63;;
48522;SDS011;34315;50.150;11.070;2023-11-21T02:57:12;5.07;;;2.00;;
48522;SDS011;34315;50.150;11.070;2023-11-21T03:02:14;4.20;;;1.85;;
48522;SDS011;34315;50.150;11.070;2023-11-21T03:07:16;4.22;;;2.25;;
48522;SDS011;34315;50.150;11.070;2023-11-21T03:12:19;3.97;;;1.77;;
48522;SDS011;34315;50.150;11.070;2023-11-21T03:17:20;5.20;;;2.20;;
48522;SDS011;34315;50.150;11.070;2023-11-21T03:22:22;3.97;;;2.05;;
48522;SDS011;34315;50.150;11.070;2023-11-21T03:27:23;3.05;;;1.80;;
48522;SDS011;34315;50.150;11.070;2023-11-21T03:32:24;3.10;;;2.05;;
48522;SDS011;34315;50.150;11.070;2023-11-21T03:37:25;3.75;;;2.13;;
48522;SDS011;34315;50.150;11.070;2023-11-21T03:42:29;3.80;;;2.15;;
48522;SDS011;34315;50.150;11.070;2023-11-21T03:47:30;6.35;;;2.70;;
48522;SDS011;34315;50.150;11.070;2023-11-21T03:52:31;5.70;;;2.78;;
48522;SDS011;34315;50.150;11.070;2023-11-21T03:57:34;9.43;;;2.30;;
48522;SDS011;34315;50.150;11.070;2023-11-21T04:02:35;8.57;;;2.65;;
48522;SDS011;34315;50.150;11.070;2023-11-21T04:07:37;5.35;;;2.65;;
48522;SDS011;34315;50.150;11.070;2023-11-21T04:12:39;3.50;;;2.28;;
48522;SDS011;34315;50.150;11.070;2023-11-21T04:17:40;4.53;;;2.70;;
48522;SDS011;34315;50.150;11.070;2023-11-21T04:22:43;4.00;;;2.38;;
48522;SDS011;34315;50.150;11.070;2023-11-21T04:27:44;6.20;;;2.60;;
48522;SDS011;34315;50.150;11.070;2023-11-21T04:32:46;5.75;;;2.60;;
48522;SDS011;34315;50.150;11.070;2023-11-21T04:37:47;4.50;;;2.60;;
48522;SDS011;34315;50.150;11.070;2023-11-21T04:42:48;6.63;;;2.35;;
48522;SDS011;34315;50.150;11.070;2023-11-21T04:47:49;6.05;;;2.75;;
48522;SDS011;34315;50.150;11.070;2023-11-21T04:52:50;7.45;;;2.75;;
48522;SDS011;34315;50.150;11.070;2023-11-21T04:57:51;4.82;;;2.30;;
48522;SDS011;34315;50.150;11.070;2023-11-21T05:02:52;5.93;;;2.58;;
48522;SDS011;34315;50.150;11.070;2023-11-21T05:07:53;7.43;;;2.67;;
48522;SDS011;34315;50.150;11.070;2023-11-21T05:12:55;5.68;;;2.70;;
48522;SDS011;34315;50.150;11.070;2023-11-21T05:17:56;8.75;;;3.05;;
48522;SDS011;34315;50.150;11.070;2023-11-21T05:23:00;6.63;;;2.53;;
48522;SDS011;34315;50.150;11.070;2023-11-21T05:28:01;5.68;;;2.45;;
48522;SDS011;34315;50.150;11.070;2023-11-21T05:33:03;3.63;;;2.38;;
48522;SDS011;34315;50.150;11.070;2023-11-21T05:38:04;5.95;;;3.05;;
48522;SDS011;34315;50.150;11.070;2023-11-21T05:43:06;7.45;;;3.17;;
48522;SDS011;34315;50.150;11.070;2023-11-21T05:48:07;5.50;;;3.22;;
48522;SDS011;34315;50.150;11.070;2023-11-21T05:53:08;7.35;;;2.97;;
48522;SDS011;34315;50.150;11.070;2023-11-21T05:58:12;5.22;;;3.10;;
48522;SDS011;34315;50.150;11.070;2023-11-21T06:03:14;7.90;;;3.20;;
48522;SDS011;34315;50.150;11.070;2023-11-21T06:08:15;5.18;;;2.83;;
48522;SDS011;34315;50.150;11.070;2023-11-21T06:13:17;6.85;;;3.80;;
48522;SDS011;34315;50.150;11.070;2023-11-21T06:18:24;7.25;;;3.78;;
48522;SDS011;34315;50.150;11.070;2023-11-21T06:23:26;5.93;;;3.03;;
48522;SDS011;34315;50.150;11.070;2023-11-21T06:28:27;5.90;;;3.00;;
48522;SDS011;34315;50.150;11.070;2023-11-21T06:33:28;6.50;;;3.40;;
48522;SDS011;34315;50.150;11.070;2023-11-21T06:38:29;7.00;;;4.05;;
48522;SDS011;34315;50.150;11.070;2023-11-21T06:43:30;10.25;;;4.47;;
48522;SDS011;34315;50.150;11.070;2023-11-21T06:48:34;6.78;;;4.30;;
48522;SDS011;34315;50.150;11.070;2023-11-21T06:53:36;6.95;;;4.05;;
48522;SDS011;34315;50.150;11.070;2023-11-21T06:58:37;7.78;;;4.22;;
48522;SDS011;34315;50.150;11.070;2023-11-21T07:03:39;8.40;;;4.50;;
48522;SDS011;34315;50.150;11.070;2023-11-21T07:08:40;9.00;;;4.90;;
48522;SDS011;34315;50.150;11.070;2023-11-21T07:13:42;10.85;;;5.50;;
48522;SDS011;34315;50.150;11.070;2023-11-21T07:18:43;9.18;;;5.43;;
48522;SDS011;34315;50.150;11.070;2023-11-21T07:23:44;8.43;;;5.10;;
48522;SDS011;34315;50.150;11.070;2023-11-21T07:28:45;8.80;;;5.10;;
48522;SDS011;34315;50.150;11.070;2023-11-21T07:33:46;7.57;;;4.55;;
48522;SDS011;34315;50.150;11.070;2023-11-21T07:38:48;9.55;;;5.78;;
48522;SDS011;34315;50.150;11.070;2023-11-21T07:43:49;12.10;;;5.88;;
48522;SDS011;34315;50.150;11.070;2023-11-21T07:48:51;12.50;;;6.28;;
48522;SDS011;34315;50.150;11.070;2023-11-21T07:53:53;11.68;;;6.63;;
48522;SDS011;34315;50.150;11.070;2023-11-21T07:58:54;13.32;;;7.15;;
48522;SDS011;34315;50.150;11.070;2023-11-21T08:03:55;14.05;;;6.60;;
48522;SDS011;34315;50.150;11.070;2023-11-21T08:08:59;10.18;;;6.43;;
48522;SDS011;34315;50.150;11.070;2023-11-21T08:14:00;12.25;;;6.47;;
48522;SDS011;34315;50.150;11.070;2023-11-21T08:19:02;12.52;;;7.03;;
48522;SDS011;34315;50.150;11.070;2023-11-21T08:24:03;11.15;;;7.00;;
48522;SDS011;34315;50.150;11.070;2023-11-21T08:29:05;12.52;;;6.60;;
48522;SDS011;34315;50.150;11.070;2023-11-21T08:34:07;12.15;;;6.90;;
48522;SDS011;34315;50.150;11.070;2023-11-21T08:39:09;11.18;;;6.47;;
48522;SDS011;34315;50.150;11.070;2023-11-21T08:44:10;9.75;;;5.95;;
48522;SDS011;34315;50.150;11.070;2023-11-21T08:49:12;15.57;;;5.70;;
48522;SDS011;34315;50.150;11.070;2023-11-21T08:54:13;14.48;;;6.00;;
48522;SDS011;34315;50.150;11.070;2023-11-21T08:59:15;11.45;;;6.60;;
48522;SDS011;34315;50.150;11.070;2023-11-21T09:04:16;14.98;;;7.45;;
48522;SDS011;34315;50.150;11.070;2023-11-21T09:09:17;10.30;;;5.88;;
48522;SDS011;34315;50.150;11.070;2023-11-21T09:14:20;13.77;;;6.80;;
48522;SDS011;34315;50.150;11.070;2023-11-21T09:19:21;10.60;;;5.72;;
48522;SDS011;34315;50.150;11.070;2023-11-21T09:24:22;11.20;;;5.70;;
48522;SDS011;34315;50.150;11.070;2023-11-21T09:29:23;10.90;;;5.40;;
48522;SDS011;34315;50.150;11.070;2023-11-21T09:34:25;11.70;;;5.43;;
48522;SDS011;34315;50.150;11.070;2023-11-21T09:39:26;10.75;;;5.15;;
48522;SDS011;34315;50.150;11.070;2023-11-21T09:44:46;11.52;;;6.00;;
48522;SDS011;34315;50.150;11.070;2023-11-21T09:50:02;8.55;;;4.78;;
48522;SDS011;34315;50.150;11.070;2023-11-21T09:55:03;8.25;;;4.85;;
48522;SDS011;34315;50.150;11.070;2023-11-21T10:00:06;7.78;;;5.07;;
48522;SDS011;34315;50.150;11.070;2023-11-21T10:05:12;8.02;;;4.53;;
48522;SDS011;34315;50.150;11.070;2023-11-21T10:10:14;8.48;;;4.53;;
48522;SDS011;34315;50.150;11.070;2023-11-21T10:15:23;9.02;;;5.03;;
48522;SDS011;34315;50.150;11.070;2023-11-21T10:20:25;5.95;;;4.00;;
48522;SDS011;34315;50.150;11.070;2023-11-21T10:25:27;6.43;;;4.00;;
48522;SDS011;34315;50.150;11.070;2023-11-21T10:30:31;8.25;;;4.35;;
48522;SDS011;34315;50.150;11.070;2023-11-21T10:35:46;16.38;;;10.13;;
48522;SDS011;34315;50.150;11.070;2023-11-21T10:40:50;5.60;;;3.30;;
48522;SDS011;34315;50.150;11.070;2023-11-21T10:45:51;5.97;;;2.97;;
48522;SDS011;34315;50.150;11.070;2023-11-21T10:50:52;4.70;;;2.42;;
48522;SDS011;34315;50.150;11.070;2023-11-21T10:56:00;6.10;;;2.83;;
48522;SDS011;34315;50.150;11.070;2023-11-21T11:01:02;4.70;;;2.42;;
48522;SDS011;34315;50.150;11.070;2023-11-21T11:06:07;4.53;;;2.30;;
48522;SDS011;34315;50.150;11.070;2023-11-21T11:11:12;6.90;;;2.53;;
48522;SDS011;34315;50.150;11.070;2023-11-21T11:16:14;4.63;;;2.10;;
48522;SDS011;34315;50.150;11.070;2023-11-21T11:22:06;4.82;;;2.42;;
48522;SDS011;34315;50.150;11.070;2023-11-21T11:32:52;5.63;;;2.28;;
48522;SDS011;34315;50.150;11.070;2023-11-21T11:37:59;5.32;;;2.40;;
48522;SDS011;34315;50.150;11.070;2023-11-21T11:43:01;6.00;;;2.30;;
48522;SDS011;34315;50.150;11.070;2023-11-21T11:48:05;4.60;;;1.60;;
48522;SDS011;34315;50.150;11.070;2023-11-21T11:53:12;4.20;;;1.92;;
48522;SDS011;34315;50.150;11.070;2023-11-21T11:58:14;5.15;;;1.90;;
48522;SDS011;34315;50.150;11.070;2023-11-21T12:03:16;3.28;;;1.63;;
48522;SDS011;34315;50.150;11.070;2023-11-21T12:08:17;6.43;;;1.83;;
48522;SDS011;34315;50.150;11.070;2023-11-21T12:13:18;6.10;;;2.50;;
48522;SDS011;34315;50.150;11.070;2023-11-21T12:18:20;6.97;;;2.33;;
48522;SDS011;34315;50.150;11.070;2023-11-21T12:23:21;5.13;;;1.98;;
48522;SDS011;34315;50.150;11.070;2023-11-21T12:28:23;4.18;;;1.80;;
48522;SDS011;34315;50.150;11.070;2023-11-21T12:33:24;7.82;;;2.03;;
48522;SDS011;34315;50.150;11.070;2023-11-21T12:38:33;4.93;;;2.00;;
48522;SDS011;34315;50.150;11.070;2023-11-21T12:43:35;3.38;;;1.90;;
48522;SDS011;34315;50.150;11.070;2023-11-21T12:48:41;5.03;;;2.20;;
48522;SDS011;34315;50.150;11.070;2023-11-21T12:53:46;4.20;;;1.90;;
48522;SDS011;34315;50.150;11.070;2023-11-21T12:58:47;4.28;;;1.88;;
48522;SDS011;34315;50.150;11.070;2023-11-21T13:03:50;6.32;;;2.22;;
48522;SDS011;34315;50.150;11.070;2023-11-21T13:08:51;6.82;;;2.25;;
48522;SDS011;34315;50.150;11.070;2023-11-21T13:13:52;8.65;;;2.45;;
48522;SDS011;34315;50.150;11.070;2023-11-21T13:18:54;8.38;;;2.70;;
48522;SDS011;34315;50.150;11.070;2023-11-21T13:23:55;9.23;;;3.30;;
48522;SDS011;34315;50.150;11.070;2023-11-21T13:28:56;6.95;;;2.67;;
48522;SDS011;34315;50.150;11.070;2023-11-21T13:33:59;7.97;;;3.03;;
48522;SDS011;34315;50.150;11.070;2023-11-21T13:39:05;5.63;;;2.45;;
48522;SDS011;34315;50.150;11.070;2023-11-21T13:44:16;4.75;;;2.22;;
48522;SDS011;34315;50.150;11.070;2023-11-21T13:49:26;7.78;;;1.90;;
48522;SDS011;34315;50.150;11.070;2023-11-21T13:54:28;7.75;;;2.58;;
48522;SDS011;34315;50.150;11.070;2023-11-21T13:59:30;7.32;;;2.67;;
48522;SDS011;34315;50.150;11.070;2023-11-21T14:04:32;7.07;;;2.60;;
48522;SDS011;34315;50.150;11.070;2023-11-21T14:09:33;5.85;;;2.70;;
48522;SDS011;34315;50.150;11.070;2023-11-21T14:14:37;4.93;;;2.53;;
48522;SDS011;34315;50.150;11.070;2023-11-21T14:19:40;8.07;;;2.70;;
48522;SDS011;34315;50.150;11.070;2023-11-21T14:24:43;7.07;;;2.83;;
48522;SDS011;34315;50.150;11.070;2023-11-21T14:29:47;8.23;;;2.88;;
48522;SDS011;34315;50.150;11.070;2023-11-21T14:34:49;6.70;;;2.45;;
48522;SDS011;34315;50.150;11.070;2023-11-21T14:39:50;7.72;;;2.40;;
48522;SDS011;34315;50.150;11.070;2023-11-21T14:44:52;7.65;;;2.42;;
48522;SDS011;34315;50.150;11.070;2023-11-21T14:49:53;5.50;;;2.28;;
48522;SDS011;34315;50.150;11.070;2023-11-21T14:54:54;5.20;;;2.38;;
48522;SDS011;34315;50.150;11.070;2023-11-21T15:00:16;6.07;;;2.58;;
48522;SDS011;34315;50.150;11.070;2023-11-21T15:05:37;5.07;;;2.08;;
48522;SDS011;34315;50.150;11.070;2023-11-21T15:10:40;6.40;;;2.13;;
48522;SDS011;34315;50.150;11.070;2023-11-21T15:15:53;5.28;;;2.28;;
48522;SDS011;34315;50.150;11.070;2023-11-21T15:20:55;8.63;;;2.70;;
48522;SDS011;34315;50.150;11.070;2023-11-21T15:25:56;7.35;;;2.60;;
48522;SDS011;34315;50.150;11.070;2023-11-21T15:30:58;7.63;;;3.28;;
48522;SDS011;34315;50.150;11.070;2023-11-21T15:35:59;8.23;;;3.30;;
48522;SDS011;34315;50.150;11.070;2023-11-21T15:41:00;9.13;;;4.15;;
48522;SDS011;34315;50.150;11.070;2023-11-21T15:46:01;14.35;;;3.97;;
48522;SDS011;34315;50.150;11.070;2023-11-21T15:51:07;9.50;;;3.45;;
48522;SDS011;34315;50.150;11.070;2023-11-21T15:56:13;6.47;;;2.65;;
48522;SDS011;34315;50.150;11.070;2023-11-21T16:01:14;7.97;;;2.95;;
48522;SDS011;34315;50.150;11.070;2023-11-21T16:06:16;9.40;;;3.03;;
48522;SDS011;34315;50.150;11.070;2023-11-21T16:11:17;8.05;;;3.35;;
48522;SDS011;34315;50.150;11.070;2023-11-21T16:16:20;15.10;;;4.28;;
48522;SDS011;34315;50.150;11.070;2023-11-21T16:21:21;9.43;;;3.78;;
48522;SDS011;34315;50.150;11.070;2023-11-21T16:26:23;9.13;;;4.40;;
48522;SDS011;34315;50.150;11.070;2023-11-21T16:31:24;6.70;;;3.88;;
48522;SDS011;34315;50.150;11.070;2023-11-21T16:36:25;9.98;;;6.25;;
48522;SDS011;34315;50.150;11.070;2023-11-21T16:41:26;11.80;;;4.97;;
48522;SDS011;34315;50.150;11.070;2023-11-21T16:46:27;12.52;;;5.05;;
48522;SDS011;34315;50.150;11.070;2023-11-21T16:51:28;8.35;;;4.05;;
48522;SDS011;34315;50.150;11.070;2023-11-21T16:56:30;2.90;;;1.52;;
48522;SDS011;34315;50.150;11.070;2023-11-21T17:01:31;2.72;;;1.02;;
48522;SDS011;34315;50.150;11.070;2023-11-21T17:06:32;1.25;;;0.90;;
48522;SDS011;34315;50.150;11.070;2023-11-21T17:11:33;1.52;;;1.05;;
48522;SDS011;34315;50.150;11.070;2023-11-21T17:16:35;2.72;;;1.58;;
48522;SDS011;34315;50.150;11.070;2023-11-21T17:21:36;3.25;;;1.70;;
48522;SDS011;34315;50.150;11.070;2023-11-21T17:26:37;3.17;;;1.90;;
48522;SDS011;34315;50.150;11.070;2023-11-21T17:31:38;3.15;;;1.67;;
48522;SDS011;34315;50.150;11.070;2023-11-21T17:36:40;2.05;;;1.30;;
48522;SDS011;34315;50.150;11.070;2023-11-21T17:41:41;2.13;;;1.30;;
48522;SDS011;34315;50.150;11.070;2023-11-21T17:46:42;2.33;;;1.30;;
48522;SDS011;34315;50.150;11.070;2023-11-21T17:51:43;3.47;;;1.63;;
48522;SDS011;34315;50.150;11.070;2023-11-21T17:56:45;2.05;;;1.52;;
48522;SDS011;34315;50.150;11.070;2023-11-21T18:01:47;2.15;;;1.42;;
48522;SDS011;34315;50.150;11.070;2023-11-21T18:06:48;4.18;;;1.70;;
48522;SDS011;34315;50.150;11.070;2023-11-21T18:11:49;3.65;;;1.70;;
48522;SDS011;34315;50.150;11.070;2023-11-21T18:16:51;4.40;;;2.25;;
48522;SDS011;34315;50.150;11.070;2023-11-21T18:21:52;5.57;;;2.85;;
48522;SDS011;34315;50.150;11.070;2023-11-21T18:26:53;6.68;;;3.20;;
48522;SDS011;34315;50.150;11.070;2023-11-21T18:31:54;7.53;;;3.95;;
48522;SDS011;34315;50.150;11.070;2023-11-21T18:36:55;8.77;;;3.90;;
48522;SDS011;34315;50.150;11.070;2023-11-21T18:41:57;6.95;;;4.10;;
48522;SDS011;34315;50.150;11.070;2023-11-21T18:46:58;7.68;;;3.83;;
48522;SDS011;34315;50.150;11.070;2023-11-21T18:51:59;9.90;;;4.07;;
48522;SDS011;34315;50.150;11.070;2023-11-21T18:57:02;6.53;;;3.42;;
48522;SDS011;34315;50.150;11.070;2023-11-21T19:02:03;6.28;;;3.53;;
48522;SDS011;34315;50.150;11.070;2023-11-21T19:07:07;6.45;;;2.83;;
48522;SDS011;34315;50.150;11.070;2023-11-21T19:12:08;6.95;;;3.13;;
48522;SDS011;34315;50.150;11.070;2023-11-21T19:17:10;6.90;;;3.50;;
48522;SDS011;34315;50.150;11.070;2023-11-21T19:22:12;5.25;;;2.90;;
48522;SDS011;34315;50.150;11.070;2023-11-21T19:27:13;6.03;;;3.08;;
48522;SDS011;34315;50.150;11.070;2023-11-21T19:32:14;5.38;;;2.95;;
48522;SDS011;34315;50.150;11.070;2023-11-21T19:37:15;6.70;;;3.05;;
48522;SDS011;34315;50.150;11.070;2023-11-21T19:42:16;5.82;;;3.05;;
48522;SDS011;34315;50.150;11.070;2023-11-21T19:47:18;7.72;;;3.00;;
48522;SDS011;34315;50.150;11.070;2023-11-21T19:52:19;5.97;;;3.08;;
48522;SDS011;34315;50.150;11.070;2023-11-21T19:57:20;6.13;;;3.05;;
48522;SDS011;34315;50.150;11.070;2023-11-21T20:02:21;5.13;;;2.97;;
48522;SDS011;34315;50.150;11.070;2023-11-21T20:07:22;5.95;;;2.83;;
48522;SDS011;34315;50.150;11.070;2023-11-21T20:12:26;5.95;;;2.28;;
48522;SDS011;34315;50.150;11.070;2023-11-21T20:17:28;5.13;;;2.38;;
48522;SDS011;34315;50.150;11.070;2023-11-21T20:22:29;4.30;;;2.13;;
48522;SDS011;34315;50.150;11.070;2023-11-21T20:27:31;3.85;;;2.17;;
48522;SDS011;34315;50.150;11.070;2023-11-21T20:32:32;3.88;;;2.08;;
48522;SDS011;34315;50.150;11.070;2023-11-21T20:37:35;5.00;;;2.13;;
48522;SDS011;34315;50.150;11.070;2023-11-21T20:42:36;4.85;;;2.40;;
48522;SDS011;34315;50.150;11.070;2023-11-21T20:47:42;4.47;;;2.03;;
48522;SDS011;34315;50.150;11.070;2023-11-21T20:52:43;4.15;;;2.28;;
48522;SDS011;34315;50.150;11.070;2023-11-21T20:57:44;8.88;;;3.90;;
48522;SDS011;34315;50.150;11.070;2023-11-21T21:02:45;5.88;;;3.20;;
48522;SDS011;34315;50.150;11.070;2023-11-21T21:07:50;6.63;;;3.20;;
48522;SDS011;34315;50.150;11.070;2023-11-21T21:12:52;6.00;;;3.20;;
48522;SDS011;34315;50.150;11.070;2023-11-21T21:17:54;5.32;;;2.70;;
48522;SDS011;34315;50.150;11.070;2023-11-21T21:22:55;4.80;;;2.75;;
48522;SDS011;34315;50.150;11.070;2023-11-21T21:27:57;4.57;;;2.42;;
48522;SDS011;34315;50.150;11.070;2023-11-21T21:32:58;7.45;;;3.58;;
48522;SDS011;34315;50.150;11.070;2023-11-21T21:38:00;4.80;;;2.58;;
48522;SDS011;34315;50.150;11.070;2023-11-21T21:43:02;6.60;;;3.35;;
48522;SDS011;34315;50.150;11.070;2023-11-21T21:48:04;8.13;;;3.80;;
48522;SDS011;34315;50.150;11.070;2023-11-21T21:53:05;6.72;;;3.53;;
48522;SDS011;34315;50.150;11.070;2023-11-21T21:58:08;8.60;;;4.47;;
48522;SDS011;34315;50.150;11.070;2023-11-21T22:03:09;7.78;;;4.00;;
48522;SDS011;34315;50.150;11.070;2023-11-21T22:08:10;6.75;;;3.63;;
48522;SDS011;34315;50.150;11.070;2023-11-21T22:13:11;6.20;;;3.38;;
48522;SDS011;34315;50.150;11.070;2023-11-21T22:18:12;8.82;;;3.70;;
48522;SDS011;34315;50.150;11.070;2023-11-21T22:23:13;6.63;;;3.47;;
48522;SDS011;34315;50.150;11.070;2023-11-21T22:28:14;7.03;;;3.80;;
48522;SDS011;34315;50.150;11.070;2023-11-21T22:33:16;7.07;;;3.67;;
48522;SDS011;34315;50.150;11.070;2023-11-21T22:38:17;8.07;;;3.80;;
48522;SDS011;34315;50.150;11.070;2023-11-21T22:43:18;8.20;;;3.70;;
48522;SDS011;34315;50.150;11.070;2023-11-21T22:48:19;8.38;;;4.25;;
48522;SDS011;34315;50.150;11.070;2023-11-21T22:53:20;10.13;;;4.15;;
48522;SDS011;34315;50.150;11.070;2023-11-21T22:58:21;6.78;;;3.30;;
48522;SDS011;34315;50.150;11.070;2023-11-21T23:03:23;6.15;;;3.13;;
48522;SDS011;34315;50.150;11.070;2023-11-21T23:08:24;6.00;;;3.40;;
48522;SDS011;34315;50.150;11.070;2023-11-21T23:13:26;6.97;;;3.58;;
48522;SDS011;34315;50.150;11.070;2023-11-21T23:18:28;7.30;;;3.35;;
48522;SDS011;34315;50.150;11.070;2023-11-21T23:23:30;7.32;;;3.60;;
48522;SDS011;34315;50.150;11.070;2023-11-21T23:28:31;6.97;;;3.63;;
48522;SDS011;34315;50.150;11.070;2023-11-21T23:33:32;6.82;;;3.80;;
48522;SDS011;34315;50.150;11.070;2023-11-21T23:38:33;6.18;;;3.30;;
48522;SDS011;34315;50.150;11.070;2023-11-21T23:43:34;6.10;;;3.05;;
48522;SDS011;34315;50.150;11.070;2023-11-21T23:48:35;7.78;;;3.00;;
48522;SDS011;34315;50.150;11.070;2023-11-21T23:53:36;7.15;;;3.47;;
48522;SDS011;34315;50.150;11.070;2023-11-21T23:58:37;9.15;;;3.42;;
